Logo AVAMET
Benvolgut visitant, si us plau, ingressa Recuperar contrasenya

les Alqueries

Dades diàries. Acumulats / Últims 30 dies disponibles

Data Temperatura (°C) Humitat rel. (%) Pressió rel. (hPa) Vent (km/h) Precipitació
Mínima Mitjana Màxima Amplitud
tèrmica
Mínima Mitjana Màxima Mínima Mitjana Màxima Predom. Mitjana Ràfega
màxima
Total
(mm)
Índex-n
Mínima Mitjana Màxima Mínima Mitjana Màxima n
0 a 1
P0 max
mm 5'
Dades mensuals acumulades fins l'últim dia disponible
11/2019 9,8 13,0 18,3 17,1 17,8 21,7 28,4 18,6 26 50 90 997 1.009 1.020   8,8 56,3 1,4
Dades anuals acumulades fins l'últim dia disponible
2019 0,9 14,0 24,4 18,4 12,7 23,0 35,7 34,8 14 66 98 990 1.017 1.035   6,9 77,2 212,1
Últims 30 dies disponibles
13-11-2019 10,3     14,2     18,9 8,6 48 68 90 1.004 1.007 1.010 SSO 3,4 19,3 1,4
12-11-2019 11,9     15,4     19,8 7,9 32 41 59 1.008 1.010 1.012 WNW 8,0 37,0 0,0
11-11-2019 9,8     13,9     19,3 9,5 33 49 65 1.010 1.012 1.014 WNW 7,7 30,6 0,0
10-11-2019 9,9     13,7     17,8 7,9 31 45 55 1.009 1.011 1.013 NW 7,7 53,1 0,0
09-11-2019 13,4     15,8     18,9 5,5 33 43 59 1.011 1.015 1.017 WNW 12,9 51,5 0,0
08-11-2019 10,2     14,4     18,4 8,2 29 40 59 1.008 1.011 1.015 WNW 13,2 49,9 0,0
07-11-2019 9,9     15,8     22,6 12,7 32 54 68 1.005 1.008 1.011 NW 6,3 33,8 0,0
06-11-2019 12,7     16,8     21,7 9,0 32 45 57 1.010 1.011 1.013 WNW 9,2 38,6 0,0
05-11-2019 14,1     18,1     21,0 6,9 32 45 64 1.004 1.007 1.011 WNW 11,9 48,3 0,0
04-11-2019 15,4     20,1     24,6 9,2 40 52 71 1.004 1.007 1.009 SW 11,1 38,6 0,0
03-11-2019 18,3     21,1     23,9 5,6 26 45 64 997 1.002 1.008 SW 14,6 56,3 0,0
02-11-2019 17,9     22,2     28,4 10,5 35 60 78 1.002 1.007 1.012 W 6,0 32,2 0,0
01-11-2019 15,3     20,6     26,7 11,4 50 70 84 1.012 1.016 1.020 WNW 2,7 16,1 0,0
31-10-2019 16,8     20,7     26,9 10,1 41 68 85 1.018 1.019 1.021 OSO 4,5 22,5 0,0
30-10-2019 15,2     19,3     24,2 9,0 55 76 92 1.019 1.020 1.021 NW 4,3 22,5 0,0
29-10-2019 13,3     17,6     22,6 9,3 72 85 93 1.015 1.016 1.019 NW 2,9 14,5 0,0
28-10-2019 13,8     16,8     21,4 7,6 75 87 94 1.016 1.017 1.020 NW 2,3 11,3 0,0
27-10-2019 13,6     17,3     21,8 8,2 69 83 93 1.020 1.021 1.022 NW 4,5 17,7 0,0
26-10-2019 12,5     17,1     21,7 9,2 61 78 92 1.020 1.021 1.022 NW 4,7 19,3 0,0
25-10-2019 12,0     17,6     23,4 11,4 43 66 83 1.020 1.021 1.022 NW 5,1 19,3 0,0
24-10-2019 11,3     15,9     21,5 10,2 42 63 81 1.009 1.015 1.021 NW 6,9 24,1 0,0
23-10-2019 9,7     14,8     20,8 11,1 39 72 94 1.004 1.006 1.010 NW 5,8 35,4 0,0
22-10-2019 12,6     14,1     15,6 3,0 69 83 92 1.005 1.010 1.018 NW 10,8 33,8 16,8 0,39 1,20
21-10-2019 11,1     15,7     20,2 9,1 53 65 78 1.014 1.016 1.018 NW 7,6 27,4 0,0
20-10-2019 14,1     18,1     21,4 7,3 47 66 82 1.004 1.008 1.014 NW 7,1 43,5 0,0
19-10-2019 15,3     20,7     27,5 12,2 36 70 87 1.006 1.009 1.012 NW 7,2 40,2 0,0
18-10-2019 16,3     20,5     25,6 9,3 57 71 86 1.012 1.014 1.017 NW 5,1 24,1 0,0
17-10-2019 14,2     19,0     24,4 10,2 35 59 80 1.015 1.016 1.017 NW 7,4 22,5 0,0
16-10-2019 14,2     18,6     23,8 9,6 36 51 65 1.016 1.018 1.020 NW 8,2 25,7 0,0
15-10-2019 15,9     19,1     22,7 6,8 30 47 90 1.012 1.016 1.019 WNW 9,7 35,4 0,0
Últims 13 mesos disponibles
10/2019 9,7 15,5 19,4 19,5 15,6 24,1 29,1 19,4 47 72 87 1.006 1.016 1.021 NW 5,8 43,5 16,8
09/2019 14,9 19,5 22,4 23,1 21,2 27,0 32,3 17,4 51 73 83 1.009 1.017 1.025 NW 7,1 56,3 67,6
08/2019 16,7 21,3 24,4 25,5 26,3 29,4 33,3 16,6 54 73 85 1.010 1.016 1.020 NW 6,2 70,8 46,4
07/2019 20,3 21,6 23,7 26,0 27,3 29,9 33,6 13,3 49 66 80 1.005 1.014 1.021 NW 6,4 35,4 14,4
06/2019 11,7 17,1 21,7 21,9 20,9 26,1 35,7 24,0 41 65 80 1.007 1.015 1.022 NW 6,7 64,4 0,0
05/2019 8,9 13,5 16,7 17,8 18,1 22,0 28,1 19,2 53 68 87 1.004 1.015 1.024 NW 6,7 54,7 15,2
04/2019 6,2 11,1 14,3 15,0 15,7 19,3 26,7 20,5 46 65 90 998 1.012 1.025 NW 9,1 67,6 33,6
03/2019 6,4 8,8 12,1 13,8 12,7 18,8 24,8 18,4 44 60 85 1.009 1.022 1.029 NW 6,4 45,1 15,4
02/2019 0,9 6,4 11,4 11,4 13,4 17,1 23,6 22,7 27 66 80 992 1.024 1.034 NW 6,1 77,2 0,0
01/2019 2,3 5,6 9,1 10,5 12,7 16,2 22,2 19,9 36 59 79 1.000 1.018 1.030 NW 7,2 75,6 1,4
12/2018 5,1 8,0 11,4 12,2 12,7 17,8 23,7 18,6 54 74 89 1.007 1.024 1.030 NW 4,3 40,2 12,4
11/2018 7,1 10,8 15,6 14,1 14,3 18,7 22,9 15,8 53 75 94 1.001 1.014 1.023 NW 6,0 61,2 93,0
10/2018 7,4 14,3 17,9 18,2 14,9 22,5 27,6 20,2 42 72 93 999 1.014 1.025 NW 6,4 62,8 203,2
Tots els anys disponibles
2018 1,8 13,6 25,9 17,8 7,9 22,2 34,5 32,7 42 74 94 999 1.018 1.030 NW 6,2 75,6 587,8
2017 0,9 13,2 24,9 17,5 9,1 21,9 34,9 34,0 57 58 59 1.016 1.018 1.020 6,6 79,0 362,7
2016 3,1 13,5 24,2 17,5 10,8 21,5 32,0 28,9 57 62 65 1.014 1.018 1.026 90,0 442,8
2015 0,6 13,4 17,9 17,6 18,3 21,7 39,9 39,3 56 67 78 1.016 1.019 1.030 85,0 407,8
2014 1,8 9,6 11,4 13,5 19,3 17,4 21,2 19,4 64 72 80 999 1.011 1.022 79,0 294,8
2013 341,6
Temperatura (°C)
Humitat relativa (%)
Velocitat del vent i ràfega màxima (km/h)
Direcció del vent (°)
Pressió (hPa)
Precipitació (mm)
Nota sobre les dades: s'avisa a l'usuari de la provisionalitat i no oficialitat d'aquestes dades
Logo AVAMET blanc
Web allotjada a Sollutia
Llicència de Creative CommonsLa web d'AVAMET i els seus continguts estan subjectes a una llicència de
Reconeixement - No Comercial - Compartir igual
Últimes estacions: Xàbia - Alt de la Granadella (Soci), Villena - Sierra de Salinas (Soci), Sueca - Centre (Inforatge), Xàbia - La Plana (Soci), Banyeres de Mariola - Molí Sol (Soci), Villena - Villa Ventín (Soci), Benissa - Convent (Soci), - - -